createdAt,value
2023-01-26T00:00:42.941Z,0.10
2023-01-26T00:03:44.043Z,0.10
2023-01-26T00:06:45.226Z,0.10
2023-01-26T00:09:46.285Z,0.10
2023-01-26T00:12:47.600Z,0.00
2023-01-26T00:15:49.456Z,0.00
2023-01-26T00:18:50.588Z,0.00
2023-01-26T00:21:51.490Z,0.00
2023-01-26T00:24:53.072Z,0.10
2023-01-26T00:27:54.129Z,0.00
2023-01-26T00:31:06.120Z,0.00
2023-01-26T00:34:07.241Z,0.00
2023-01-26T00:37:08.412Z,0.00
2023-01-26T00:40:11.341Z,0.00
2023-01-26T00:43:12.527Z,0.00
2023-01-26T00:46:13.290Z,-0.10
2023-01-26T00:49:14.067Z,0.00
2023-01-26T00:52:15.165Z,-0.10
2023-01-26T00:55:16.096Z,-0.10
2023-01-26T00:58:17.251Z,-0.10
2023-01-26T01:01:17.931Z,-0.10
2023-01-26T01:04:19.297Z,-0.10
2023-01-26T01:07:20.532Z,-0.10
2023-01-26T01:10:21.771Z,-0.10
2023-01-26T01:13:22.515Z,-0.10
2023-01-26T01:16:24.204Z,-0.20
2023-01-26T01:19:26.041Z,-0.20
2023-01-26T01:22:27.211Z,-0.20
2023-01-26T01:25:28.665Z,-0.30
2023-01-26T01:28:29.445Z,-0.30
2023-01-26T01:31:31.149Z,-0.30
2023-01-26T01:34:32.333Z,-0.30
2023-01-26T01:37:33.898Z,-0.30
2023-01-26T01:40:34.880Z,-0.30
2023-01-26T01:43:37.209Z,-0.30
2023-01-26T01:46:44.231Z,-0.30
2023-01-26T01:49:52.742Z,-0.30
2023-01-26T01:52:56.356Z,-0.30
2023-01-26T01:56:07.742Z,-0.40
2023-01-26T01:59:12.329Z,-0.40
2023-01-26T02:02:14.795Z,-0.40
2023-01-26T02:06:06.528Z,-0.40
2023-01-26T02:09:29.375Z,-0.30
2023-01-26T02:12:33.795Z,-0.30
2023-01-26T02:15:35.265Z,-0.30
2023-01-26T02:18:36.807Z,-0.40
2023-01-26T02:21:39.378Z,-0.40
2023-01-26T02:24:41.520Z,-0.40
2023-01-26T02:27:43.205Z,-0.40
2023-01-26T02:30:44.864Z,-0.40
2023-01-26T02:33:46.581Z,-0.40
2023-01-26T02:37:01.037Z,-0.40
2023-01-26T02:40:16.414Z,-0.40
2023-01-26T02:43:17.969Z,-0.40
2023-01-26T02:46:18.954Z,-0.40
2023-01-26T02:49:39.104Z,-0.40
2023-01-26T02:52:40.274Z,-0.40
2023-01-26T02:55:52.282Z,-0.50
2023-01-26T02:58:53.304Z,-0.50
2023-01-26T03:01:57.760Z,-0.40
2023-01-26T03:04:59.075Z,-0.40
2023-01-26T03:08:01.329Z,-0.40
2023-01-26T03:11:09.522Z,-0.40
2023-01-26T03:14:15.692Z,-0.40
2023-01-26T03:17:16.784Z,-0.40
2023-01-26T03:20:36.712Z,-0.40
2023-01-26T03:23:56.382Z,-0.40
2023-01-26T03:27:18.264Z,-0.50
2023-01-26T03:30:20.250Z,-0.50
2023-01-26T03:33:23.713Z,-0.50
2023-01-26T03:36:25.908Z,-0.40
2023-01-26T03:39:45.942Z,-0.40
2023-01-26T03:43:05.774Z,-0.40
2023-01-26T03:46:26.810Z,-0.40
2023-01-26T03:49:47.116Z,-0.50
2023-01-26T03:53:06.634Z,-0.50
2023-01-26T03:56:35.315Z,-0.50
2023-01-26T03:59:44.507Z,-0.50
2023-01-26T04:03:09.149Z,-0.50
2023-01-26T04:06:28.730Z,-0.40
2023-01-26T04:09:30.494Z,-0.40
2023-01-26T04:12:32.397Z,-0.40
2023-01-26T04:16:09.452Z,-0.40
2023-01-26T04:19:29.548Z,-0.50
2023-01-26T04:22:31.805Z,-0.40
2023-01-26T04:25:32.785Z,-0.40
2023-01-26T04:28:33.709Z,-0.40
2023-01-26T04:31:35.575Z,-0.50
2023-01-26T04:34:36.792Z,-0.40
2023-01-26T04:37:45.105Z,-0.40
2023-01-26T04:40:53.809Z,-0.40
2023-01-26T04:43:55.487Z,-0.50
2023-01-26T04:46:58.306Z,-0.50
2023-01-26T04:49:59.797Z,-0.50
2023-01-26T04:53:01.332Z,-0.40
2023-01-26T04:56:02.831Z,-0.50
2023-01-26T04:59:08.308Z,-0.50
2023-01-26T05:02:11.461Z,-0.50
2023-01-26T05:05:13.312Z,-0.40
2023-01-26T05:08:14.515Z,-0.40
2023-01-26T05:11:16.422Z,-0.40
2023-01-26T05:14:29.031Z,-0.40
2023-01-26T05:17:38.384Z,-0.40
2023-01-26T05:20:58.320Z,-0.50
2023-01-26T05:24:01.359Z,-0.50
2023-01-26T05:27:21.569Z,-0.50
2023-01-26T05:30:28.622Z,-0.50
2023-01-26T05:33:29.812Z,-0.40
2023-01-26T05:36:31.880Z,-0.40
2023-01-26T05:39:33.001Z,-0.50
2023-01-26T05:42:34.861Z,-0.50
2023-01-26T05:45:48.685Z,-0.50
2023-01-26T05:48:50.485Z,-0.50
2023-01-26T05:51:51.961Z,-0.50
2023-01-26T05:54:53.762Z,-0.50
2023-01-26T05:57:55.099Z,-0.50
2023-01-26T06:00:56.471Z,-0.40
2023-01-26T06:04:03.483Z,-0.40
2023-01-26T06:07:13.752Z,-0.40
2023-01-26T06:10:24.701Z,-0.40
2023-01-26T06:13:39.645Z,-0.50
2023-01-26T06:16:52.651Z,-0.50
2023-01-26T06:19:53.620Z,-0.50
2023-01-26T06:22:54.822Z,-0.50
2023-01-26T06:26:00.590Z,-0.50
2023-01-26T06:29:02.673Z,-0.50
2023-01-26T06:32:06.930Z,-0.50
2023-01-26T06:35:08.929Z,-0.50
2023-01-26T06:38:10.392Z,-0.50
2023-01-26T06:41:11.198Z,-0.40
2023-01-26T06:44:12.399Z,-0.50
2023-01-26T06:47:14.070Z,-0.50
2023-01-26T06:50:20.099Z,-0.60
2023-01-26T06:53:38.497Z,-0.60
2023-01-26T06:57:00.963Z,-0.60
2023-01-26T07:00:21.243Z,-0.60
2023-01-26T07:03:32.383Z,-0.60
2023-01-26T07:06:33.627Z,-0.60
2023-01-26T07:09:34.430Z,-0.60
2023-01-26T07:12:46.467Z,-0.60
2023-01-26T07:15:47.275Z,-0.60
2023-01-26T07:18:48.211Z,-0.50
2023-01-26T07:21:49.766Z,-0.50
2023-01-26T07:24:50.882Z,-0.50
2023-01-26T07:27:59.331Z,-0.50
2023-01-26T07:31:06.592Z,-0.50
2023-01-26T07:34:07.674Z,-0.50
2023-01-26T07:37:08.302Z,-0.50
2023-01-26T07:40:10.640Z,-0.50
2023-01-26T07:43:12.254Z,-0.50
2023-01-26T07:46:24.776Z,-0.50
2023-01-26T07:49:25.967Z,-0.50
2023-01-26T07:52:27.052Z,-0.50
2023-01-26T07:55:27.993Z,-0.40
2023-01-26T07:58:29.068Z,-0.40
2023-01-26T08:01:30.037Z,-0.40
2023-01-26T08:04:31.165Z,-0.40
2023-01-26T08:07:32.306Z,-0.40
2023-01-26T08:10:33.209Z,-0.40
2023-01-26T08:13:36.193Z,-0.40
2023-01-26T08:16:37.255Z,-0.40
2023-01-26T08:19:38.373Z,-0.30
2023-01-26T08:22:39.053Z,-0.40
2023-01-26T08:25:39.867Z,-0.40
2023-01-26T08:28:41.834Z,-0.40
2023-01-26T08:31:42.857Z,-0.30
2023-01-26T08:34:43.499Z,-0.40
2023-01-26T08:37:44.220Z,-0.40
2023-01-26T08:40:51.753Z,-0.40
2023-01-26T08:43:53.204Z,-0.40
2023-01-26T08:46:53.884Z,-0.40
2023-01-26T08:49:54.612Z,-0.40
2023-01-26T08:52:57.052Z,-0.40
2023-01-26T08:55:58.233Z,-0.30
2023-01-26T08:58:59.329Z,-0.40
2023-01-26T09:02:00.259Z,-0.40
2023-01-26T09:05:01.525Z,-0.30
2023-01-26T09:08:04.863Z,-0.30
2023-01-26T09:11:07.605Z,-0.30
2023-01-26T09:14:08.481Z,-0.30
2023-01-26T09:17:09.223Z,-0.30
2023-01-26T09:20:12.298Z,-0.30
2023-01-26T09:23:13.593Z,-0.40
2023-01-26T09:26:14.481Z,-0.30
2023-01-26T09:29:16.764Z,-0.40
2023-01-26T09:32:18.266Z,-0.40
2023-01-26T09:35:19.588Z,-0.30
2023-01-26T09:38:20.603Z,-0.40
2023-01-26T09:41:52.125Z,-0.40
2023-01-26T09:45:23.083Z,-0.30
2023-01-26T09:48:37.828Z,-0.30
2023-01-26T09:51:47.575Z,-0.30
2023-01-26T09:54:52.828Z,-0.30
2023-01-26T09:58:15.350Z,-0.30
2023-01-26T10:01:43.700Z,-0.20
2023-01-26T10:04:51.105Z,-0.20
2023-01-26T10:07:52.021Z,-0.20
2023-01-26T10:11:07.805Z,-0.20
2023-01-26T10:14:36.243Z,-0.10
2023-01-26T10:17:44.384Z,-0.10
2023-01-26T10:20:54.669Z,-0.10
2023-01-26T10:23:59.570Z,-0.20
2023-01-26T10:27:00.924Z,-0.10
2023-01-26T10:30:01.821Z,-0.10
2023-01-26T10:33:03.140Z,-0.10
2023-01-26T10:36:07.669Z,-0.10
2023-01-26T10:39:15.431Z,-0.10
2023-01-26T10:42:19.672Z,-0.20
2023-01-26T10:45:34.093Z,-0.20
2023-01-26T10:48:35.543Z,-0.20
2023-01-26T10:51:40.728Z,-0.20
2023-01-26T10:54:44.050Z,-0.20
2023-01-26T10:57:45.062Z,-0.10
2023-01-26T11:00:56.832Z,-0.20
2023-01-26T11:04:12.335Z,-0.20
2023-01-26T11:07:32.033Z,-0.20
2023-01-26T11:10:35.137Z,-0.10
2023-01-26T11:14:33.155Z,-0.10
2023-01-26T11:18:00.870Z,-0.10
2023-01-26T11:21:17.440Z,-0.10
2023-01-26T11:24:33.782Z,-0.10
2023-01-26T11:27:46.217Z,-0.10
2023-01-26T11:31:00.255Z,-0.10
2023-01-26T11:34:33.202Z,-0.20
2023-01-26T11:38:01.103Z,-0.10
2023-01-26T11:41:14.041Z,-0.10
2023-01-26T11:44:35.448Z,-0.10
2023-01-26T11:47:45.101Z,-0.10
2023-01-26T11:50:50.601Z,-0.10
2023-01-26T11:54:09.561Z,-0.20
2023-01-26T11:57:30.120Z,-0.20
2023-01-26T12:00:50.099Z,-0.20
2023-01-26T12:03:51.707Z,-0.20
2023-01-26T12:07:01.586Z,-0.20
2023-01-26T12:10:05.268Z,-0.20
2023-01-26T12:13:18.863Z,-0.20
2023-01-26T12:16:30.287Z,-0.10
2023-01-26T12:19:53.167Z,-0.10
2023-01-26T12:23:08.996Z,-0.10
2023-01-26T12:26:16.943Z,-0.20
2023-01-26T12:29:37.275Z,-0.20
2023-01-26T12:32:38.532Z,-0.20
2023-01-26T12:36:25.591Z,-0.20
2023-01-26T12:40:01.432Z,-0.30
2023-01-26T12:43:50.792Z,-0.30
2023-01-26T12:46:56.735Z,-0.30
2023-01-26T12:50:16.249Z,-0.30
2023-01-26T12:53:31.708Z,-0.30
2023-01-26T12:56:42.321Z,-0.30
2023-01-26T12:59:48.148Z,-0.30
2023-01-26T13:02:55.876Z,-0.30
2023-01-26T13:06:00.558Z,-0.40
2023-01-26T13:09:06.065Z,-0.40
2023-01-26T13:12:45.585Z,-0.40
2023-01-26T13:15:46.566Z,-0.40
2023-01-26T13:18:58.589Z,-0.40
2023-01-26T13:21:59.381Z,-0.40
2023-01-26T13:25:31.376Z,-0.40
2023-01-26T13:28:32.458Z,-0.40
2023-01-26T13:31:34.550Z,-0.40
2023-01-26T13:34:49.799Z,-0.40
2023-01-26T13:37:53.534Z,-0.40
2023-01-26T13:40:55.147Z,-0.40
2023-01-26T13:44:07.847Z,-0.30
2023-01-26T13:47:20.571Z,-0.30
2023-01-26T13:50:33.689Z,-0.20
2023-01-26T13:53:41.654Z,-0.20
2023-01-26T13:56:59.054Z,-0.20
2023-01-26T14:00:00.476Z,-0.20
2023-01-26T14:03:01.993Z,-0.20
2023-01-26T14:06:11.589Z,-0.30
2023-01-26T14:09:15.692Z,-0.20
2023-01-26T14:12:23.913Z,-0.20
2023-01-26T14:15:30.644Z,-0.30
2023-01-26T14:18:31.776Z,-0.20
2023-01-26T14:21:33.367Z,-0.20
2023-01-26T14:24:39.708Z,-0.20
2023-01-26T14:27:42.609Z,-0.20
2023-01-26T14:30:43.992Z,-0.20
2023-01-26T14:33:45.117Z,-0.20
2023-01-26T14:36:45.580Z,-0.20
2023-01-26T14:39:48.221Z,-0.20
2023-01-26T14:42:52.488Z,-0.20
2023-01-26T14:46:08.110Z,-0.30
2023-01-26T14:49:16.426Z,-0.30
2023-01-26T14:52:33.966Z,-0.30
2023-01-26T14:55:36.619Z,-0.30
2023-01-26T14:58:37.269Z,-0.30
2023-01-26T15:01:38.391Z,-0.30
2023-01-26T15:04:40.539Z,-0.30
2023-01-26T15:07:41.278Z,-0.30
2023-01-26T15:10:52.816Z,-0.30
2023-01-26T15:13:55.613Z,-0.40
2023-01-26T15:16:56.375Z,-0.30
2023-01-26T15:19:57.361Z,-0.40
2023-01-26T15:22:58.319Z,-0.40
2023-01-26T15:26:23.240Z,-0.40
2023-01-26T15:29:25.452Z,-0.40
2023-01-26T15:32:32.603Z,-0.40
2023-01-26T15:35:34.959Z,-0.40
2023-01-26T15:38:35.980Z,-0.40
2023-01-26T15:41:36.704Z,-0.40
2023-01-26T15:44:37.331Z,-0.40
2023-01-26T15:47:38.159Z,-0.40
2023-01-26T15:50:39.299Z,-0.40
2023-01-26T15:53:41.156Z,-0.50
2023-01-26T15:56:41.953Z,-0.40
2023-01-26T15:59:42.799Z,-0.50
2023-01-26T16:02:44.640Z,-0.50
2023-01-26T16:05:49.443Z,-0.40
2023-01-26T16:08:50.507Z,-0.50
2023-01-26T16:11:52.846Z,-0.50
2023-01-26T16:14:53.416Z,-0.50
2023-01-26T16:17:54.385Z,-0.50
2023-01-26T16:20:55.594Z,-0.50
2023-01-26T16:23:56.560Z,-0.40
2023-01-26T16:26:57.376Z,-0.50
2023-01-26T16:29:58.327Z,-0.50
2023-01-26T16:32:59.118Z,-0.50
2023-01-26T16:36:00.022Z,-0.50
2023-01-26T16:39:01.111Z,-0.50
2023-01-26T16:42:01.971Z,-0.50
2023-01-26T16:45:03.010Z,-0.50
2023-01-26T16:48:11.160Z,-0.60
2023-01-26T16:51:36.040Z,-0.60
2023-01-26T16:54:37.126Z,-0.50
2023-01-26T16:57:37.652Z,-0.60
2023-01-26T17:00:38.549Z,-0.60
2023-01-26T17:03:39.648Z,-0.60
2023-01-26T17:06:40.544Z,-0.50
2023-01-26T17:09:41.374Z,-0.50
2023-01-26T17:12:42.505Z,-0.60
2023-01-26T17:15:43.586Z,-0.60
2023-01-26T17:18:47.809Z,-0.60
2023-01-26T17:21:48.551Z,-0.60
2023-01-26T17:24:49.954Z,-0.60
2023-01-26T17:27:50.778Z,-0.60
2023-01-26T17:30:51.397Z,-0.60
2023-01-26T17:33:52.711Z,-0.60
2023-01-26T17:36:54.756Z,-0.60
2023-01-26T17:39:57.102Z,-0.60
2023-01-26T17:42:57.867Z,-0.60
2023-01-26T17:46:03.347Z,-0.60
2023-01-26T17:49:04.369Z,-0.60
2023-01-26T17:52:05.983Z,-0.50
2023-01-26T17:55:07.500Z,-0.50
2023-01-26T17:58:11.107Z,-0.60
2023-01-26T18:01:12.133Z,-0.50
2023-01-26T18:04:12.891Z,-0.50
2023-01-26T18:07:14.034Z,-0.50
2023-01-26T18:10:14.975Z,-0.50
2023-01-26T18:13:16.052Z,-0.50
2023-01-26T18:16:19.428Z,-0.60
2023-01-26T18:19:20.375Z,-0.50
2023-01-26T18:22:21.514Z,-0.50
2023-01-26T18:25:22.691Z,-0.50
2023-01-26T18:28:23.616Z,-0.50
2023-01-26T18:31:30.320Z,-0.50
2023-01-26T18:34:31.219Z,-0.50
2023-01-26T18:37:33.775Z,-0.50
2023-01-26T18:40:35.325Z,-0.60
2023-01-26T18:43:36.207Z,-0.60
2023-01-26T18:46:37.856Z,-0.60
2023-01-26T18:49:38.630Z,-0.60
2023-01-26T18:52:39.661Z,-0.50
2023-01-26T18:55:40.309Z,-0.60
2023-01-26T18:58:41.593Z,-0.60
2023-01-26T19:01:43.852Z,-0.60
2023-01-26T19:04:44.592Z,-0.60
2023-01-26T19:07:45.407Z,-0.60
2023-01-26T19:10:46.342Z,-0.60
2023-01-26T19:13:48.906Z,-0.50
2023-01-26T19:16:49.888Z,-0.50
2023-01-26T19:19:50.899Z,-0.60
2023-01-26T19:22:55.615Z,-0.50
2023-01-26T19:25:56.646Z,-0.60
2023-01-26T19:28:58.349Z,-0.60
2023-01-26T19:31:59.271Z,-0.60
2023-01-26T19:35:00.272Z,-0.60
2023-01-26T19:38:01.099Z,-0.60
2023-01-26T19:41:02.516Z,-0.60
2023-01-26T19:44:03.385Z,-0.60
2023-01-26T19:47:04.245Z,-0.60
2023-01-26T19:50:05.580Z,-0.60
2023-01-26T19:53:07.731Z,-0.60
2023-01-26T19:56:20.431Z,-0.60
2023-01-26T19:59:22.585Z,-0.70
2023-01-26T20:02:23.673Z,-0.70
2023-01-26T20:05:24.363Z,-0.70
2023-01-26T20:08:26.533Z,-0.70
2023-01-26T20:11:29.753Z,-0.70
2023-01-26T20:14:30.440Z,-0.70
2023-01-26T20:17:31.414Z,-0.70
2023-01-26T20:20:32.018Z,-0.70
2023-01-26T20:23:33.882Z,-0.70
2023-01-26T20:26:35.595Z,-0.70
2023-01-26T20:29:36.977Z,-0.70
2023-01-26T20:32:38.781Z,-0.70
2023-01-26T20:35:40.612Z,-0.70
2023-01-26T20:38:41.682Z,-0.70
2023-01-26T20:41:42.719Z,-0.70
2023-01-26T20:44:43.612Z,-0.70
2023-01-26T20:47:44.809Z,-0.70
2023-01-26T20:50:45.624Z,-0.70
2023-01-26T20:53:48.358Z,-0.70
2023-01-26T20:56:51.494Z,-0.70
2023-01-26T20:59:52.547Z,-0.70
2023-01-26T21:02:53.115Z,-0.70
2023-01-26T21:05:54.334Z,-0.70
2023-01-26T21:08:57.966Z,-0.60
2023-01-26T21:11:58.680Z,-0.60
2023-01-26T21:14:59.759Z,-0.60
2023-01-26T21:18:00.610Z,-0.60
2023-01-26T21:21:04.166Z,-0.60
2023-01-26T21:24:05.187Z,-0.60
2023-01-26T21:27:06.911Z,-0.60
2023-01-26T21:30:08.251Z,-0.60
2023-01-26T21:33:09.026Z,-0.60
2023-01-26T21:36:13.442Z,-0.60
2023-01-26T21:39:15.134Z,-0.60
2023-01-26T21:42:16.148Z,-0.60
2023-01-26T21:45:35.303Z,-0.60
2023-01-26T21:48:36.230Z,-0.60
2023-01-26T21:51:55.953Z,-0.70
2023-01-26T21:54:59.116Z,-0.70
2023-01-26T21:58:18.458Z,-0.60
2023-01-26T22:01:19.470Z,-0.70
2023-01-26T22:04:24.368Z,-0.70
2023-01-26T22:07:28.170Z,-0.70
2023-01-26T22:10:28.903Z,-0.70
2023-01-26T22:13:29.910Z,-0.70
2023-01-26T22:16:30.951Z,-0.70
2023-01-26T22:19:31.748Z,-0.70
2023-01-26T22:22:32.765Z,-0.70
2023-01-26T22:25:40.908Z,-0.70
2023-01-26T22:28:44.351Z,-0.70
2023-01-26T22:31:45.492Z,-0.70
2023-01-26T22:34:46.244Z,-0.70
2023-01-26T22:37:47.383Z,-0.70
2023-01-26T22:40:48.236Z,-0.80
2023-01-26T22:43:55.329Z,-0.80
2023-01-26T22:46:56.259Z,-0.80
2023-01-26T22:49:56.876Z,-0.80
2023-01-26T22:52:58.059Z,-0.80
2023-01-26T22:55:58.464Z,-0.80
2023-01-26T22:59:00.755Z,-0.80
2023-01-26T23:02:02.046Z,-0.80
2023-01-26T23:05:02.968Z,-0.80
2023-01-26T23:08:04.117Z,-0.80
2023-01-26T23:11:10.748Z,-0.80
2023-01-26T23:14:11.571Z,-0.80
2023-01-26T23:17:12.635Z,-0.80
2023-01-26T23:20:13.891Z,-0.90
2023-01-26T23:23:15.979Z,-0.90
2023-01-26T23:26:17.167Z,-0.80
2023-01-26T23:29:17.935Z,-0.80
2023-01-26T23:32:18.801Z,-0.80
2023-01-26T23:35:19.684Z,-0.90
2023-01-26T23:38:23.037Z,-0.80
2023-01-26T23:41:23.823Z,-0.80
2023-01-26T23:44:24.527Z,-0.80
2023-01-26T23:47:25.499Z,-0.80
2023-01-26T23:50:27.008Z,-0.90
2023-01-26T23:53:30.895Z,-0.90
2023-01-26T23:56:31.723Z,-0.80
2023-01-26T23:59:32.781Z,-0.90
